createdAt,value
2017-05-16T00:00:07.794Z,84.76
2017-05-16T00:01:08.441Z,84.56
2017-05-16T00:02:09.079Z,84.56
2017-05-16T00:03:09.721Z,84.56
2017-05-16T00:04:10.767Z,84.37
2017-05-16T00:05:11.403Z,84.76
2017-05-16T00:06:12.045Z,84.37
2017-05-16T00:07:12.682Z,84.66
2017-05-16T00:08:13.326Z,84.56
2017-05-16T00:09:13.962Z,84.56
2017-05-16T00:10:14.605Z,84.56
2017-05-16T00:11:15.246Z,84.76
2017-05-16T00:12:16.087Z,84.56
2017-05-16T00:13:16.732Z,84.76
2017-05-16T00:14:17.372Z,84.66
2017-05-16T00:15:18.015Z,84.66
2017-05-16T00:16:18.655Z,84.56
2017-05-16T00:17:19.297Z,84.47
2017-05-16T00:18:19.940Z,84.76
2017-05-16T00:19:20.577Z,84.66
2017-05-16T00:20:21.519Z,84.66
2017-05-16T00:21:22.123Z,84.28
2017-05-16T00:22:22.765Z,84.18
2017-05-16T00:23:23.406Z,84.28
2017-05-16T00:24:24.050Z,84.28
2017-05-16T00:25:24.692Z,84.28
2017-05-16T00:26:25.334Z,84.37
2017-05-16T00:27:25.978Z,84.37
2017-05-16T00:28:26.820Z,84.37
2017-05-16T00:29:27.463Z,84.28
2017-05-16T00:30:28.106Z,84.28
2017-05-16T00:31:28.747Z,84.47
2017-05-16T00:32:29.391Z,84.28
2017-05-16T00:33:30.035Z,84.18
2017-05-16T00:34:30.674Z,84.56
2017-05-16T00:35:31.315Z,84.28
2017-05-16T00:36:31.956Z,84.18
2017-05-16T00:37:32.797Z,84.47
2017-05-16T00:38:33.440Z,84.37
2017-05-16T00:39:34.076Z,84.28
2017-05-16T00:40:34.713Z,84.56
2017-05-16T00:41:35.351Z,84.37
2017-05-16T00:42:35.989Z,84.28
2017-05-16T00:43:36.631Z,84.18
2017-05-16T00:44:37.273Z,84.37
2017-05-16T00:45:38.063Z,84.37
2017-05-16T00:46:38.702Z,84.37
2017-05-16T00:47:39.336Z,84.37
2017-05-16T00:48:39.976Z,84.28
2017-05-16T00:49:40.621Z,84.37
2017-05-16T00:50:41.269Z,84.37
2017-05-16T00:51:41.908Z,83.99
2017-05-16T00:52:42.549Z,83.89
2017-05-16T00:53:43.385Z,83.89
2017-05-16T00:54:44.027Z,83.61
2017-05-16T00:55:44.673Z,84.56
2017-05-16T00:56:45.315Z,84.56
2017-05-16T00:57:45.950Z,84.23
2017-05-16T00:58:46.592Z,84.37
2017-05-16T00:59:47.232Z,84.37
2017-05-16T01:00:47.876Z,84.14
2017-05-16T01:01:48.718Z,84.72
2017-05-16T01:02:49.362Z,84.28
2017-05-16T01:03:50.001Z,84.81
2017-05-16T01:04:50.642Z,84.56
2017-05-16T01:05:51.286Z,84.56
2017-05-16T01:06:51.928Z,84.76
2017-05-16T01:07:52.572Z,84.18
2017-05-16T01:08:53.212Z,84.33
2017-05-16T01:09:53.846Z,84.47
2017-05-16T01:10:54.687Z,84.23
2017-05-16T01:11:55.327Z,84.28
2017-05-16T01:12:55.966Z,84.66
2017-05-16T01:13:56.607Z,84.62
2017-05-16T01:14:57.247Z,84.76
2017-05-16T01:15:57.887Z,84.28
2017-05-16T01:16:58.533Z,84.33
2017-05-16T01:17:59.173Z,84.33
2017-05-16T01:19:00.013Z,84.37
2017-05-16T01:20:00.651Z,84.72
2017-05-16T01:21:01.294Z,84.56
2017-05-16T01:22:01.936Z,84.56
2017-05-16T01:23:02.572Z,84.33
2017-05-16T01:24:03.214Z,84.91
2017-05-16T01:25:03.854Z,84.91
2017-05-16T01:26:04.496Z,84.81
2017-05-16T01:27:05.289Z,84.91
2017-05-16T01:28:05.932Z,84.91
2017-05-16T01:29:06.573Z,85.05
2017-05-16T01:30:07.214Z,84.62
2017-05-16T01:31:07.857Z,85.10
2017-05-16T01:32:08.497Z,84.81
2017-05-16T01:33:09.136Z,85.05
2017-05-16T01:34:09.782Z,84.86
2017-05-16T01:35:10.621Z,84.81
2017-05-16T01:36:11.263Z,84.95
2017-05-16T01:37:11.906Z,84.53
2017-05-16T01:38:12.546Z,84.62
2017-05-16T01:39:13.184Z,84.62
2017-05-16T01:40:13.825Z,84.33
2017-05-16T01:41:14.468Z,84.33
2017-05-16T01:42:15.110Z,84.43
2017-05-16T01:43:15.955Z,84.43
2017-05-16T01:44:16.597Z,84.33
2017-05-16T01:45:17.238Z,84.23
2017-05-16T01:46:17.879Z,84.33
2017-05-16T01:47:18.568Z,84.14
2017-05-16T01:48:19.175Z,84.62
2017-05-16T01:49:19.819Z,84.53
2017-05-16T01:50:20.461Z,84.53
2017-05-16T01:51:21.102Z,84.62
2017-05-16T01:52:21.942Z,84.53
2017-05-16T01:53:22.584Z,84.53
2017-05-16T01:54:23.229Z,84.62
2017-05-16T01:55:23.870Z,84.72
2017-05-16T01:56:26.957Z,84.81
2017-05-16T01:57:27.597Z,84.62
2017-05-16T01:58:28.235Z,84.62
2017-05-16T01:59:28.877Z,84.14
2017-05-16T02:00:29.662Z,84.23
2017-05-16T02:01:30.305Z,84.53
2017-05-16T02:02:30.945Z,84.72
2017-05-16T02:03:31.587Z,84.53
2017-05-16T02:04:32.227Z,84.72
2017-05-16T02:05:32.864Z,84.53
2017-05-16T02:06:33.509Z,85.20
2017-05-16T02:07:34.152Z,85.00
2017-05-16T02:08:34.994Z,85.10
2017-05-16T02:09:35.634Z,85.30
2017-05-16T02:10:36.277Z,85.87
2017-05-16T02:11:36.914Z,85.30
2017-05-16T02:12:37.555Z,85.49
2017-05-16T02:13:38.195Z,85.58
2017-05-16T02:14:38.834Z,85.39
2017-05-16T02:15:39.475Z,85.20
2017-05-16T02:16:40.320Z,85.58
2017-05-16T02:17:41.280Z,85.30
2017-05-16T02:18:41.924Z,85.20
2017-05-16T02:19:42.563Z,85.49
2017-05-16T02:20:43.200Z,85.49
2017-05-16T02:21:43.841Z,85.49
2017-05-16T02:22:44.484Z,85.58
2017-05-16T02:23:45.126Z,85.49
2017-05-16T02:24:45.962Z,85.58
2017-05-16T02:25:46.604Z,85.58
2017-05-16T02:26:47.244Z,85.58
2017-05-16T02:27:47.882Z,85.68
2017-05-16T02:28:48.522Z,85.49
2017-05-16T02:29:49.164Z,85.68
2017-05-16T02:30:49.805Z,85.58
2017-05-16T02:31:50.446Z,85.10
2017-05-16T02:32:51.089Z,85.58
2017-05-16T02:33:51.880Z,85.20
2017-05-16T02:34:52.518Z,85.10
2017-05-16T02:35:53.158Z,85.39
2017-05-16T02:36:53.795Z,85.39
2017-05-16T02:37:54.436Z,85.20
2017-05-16T02:38:55.076Z,85.39
2017-05-16T02:39:55.717Z,85.00
2017-05-16T02:40:56.355Z,85.10
2017-05-16T02:41:57.198Z,85.20
2017-05-16T02:42:57.842Z,85.10
2017-05-16T02:43:58.481Z,85.30
2017-05-16T02:44:59.123Z,85.30
2017-05-16T02:45:59.765Z,85.00
2017-05-16T02:47:00.403Z,85.00
2017-05-16T02:48:01.044Z,85.10
2017-05-16T02:49:01.678Z,85.30
2017-05-16T02:50:02.471Z,85.20
2017-05-16T02:51:03.432Z,85.20
2017-05-16T02:52:04.072Z,85.20
2017-05-16T02:53:04.770Z,85.00
2017-05-16T02:54:05.381Z,85.20
2017-05-16T02:55:06.018Z,85.00
2017-05-16T02:56:06.662Z,85.00
2017-05-16T02:57:07.303Z,85.10
2017-05-16T02:58:08.143Z,85.00
2017-05-16T02:59:08.785Z,84.72
2017-05-16T03:00:09.426Z,84.81
2017-05-16T03:01:10.065Z,84.72
2017-05-16T03:02:10.704Z,85.00
2017-05-16T03:03:11.345Z,85.00
2017-05-16T03:04:11.987Z,85.00
2017-05-16T03:05:12.628Z,85.10
2017-05-16T03:06:13.269Z,85.00
2017-05-16T03:07:14.115Z,85.00
2017-05-16T03:08:14.756Z,85.00
2017-05-16T03:09:15.395Z,84.91
2017-05-16T03:10:16.036Z,85.20
2017-05-16T03:11:16.677Z,85.00
2017-05-16T03:12:17.325Z,85.00
2017-05-16T03:13:18.288Z,85.10
2017-05-16T03:14:18.927Z,84.72
2017-05-16T03:15:19.718Z,84.72
2017-05-16T03:16:20.362Z,85.20
2017-05-16T03:17:21.003Z,85.00
2017-05-16T03:18:21.645Z,85.00
2017-05-16T03:19:22.289Z,84.72
2017-05-16T03:20:22.925Z,84.91
2017-05-16T03:21:23.568Z,85.00
2017-05-16T03:22:24.212Z,85.00
2017-05-16T03:23:25.061Z,84.72
2017-05-16T03:24:25.694Z,85.20
2017-05-16T03:25:26.337Z,85.00
2017-05-16T03:26:26.974Z,85.10
2017-05-16T03:27:27.616Z,85.10
2017-05-16T03:28:28.250Z,85.10
2017-05-16T03:29:28.892Z,85.20
2017-05-16T03:30:29.534Z,84.81
2017-05-16T03:31:30.377Z,84.62
2017-05-16T03:32:31.019Z,84.91
2017-05-16T03:33:31.660Z,84.81
2017-05-16T03:34:32.298Z,84.72
2017-05-16T03:35:32.937Z,84.62
2017-05-16T03:36:33.577Z,84.81
2017-05-16T03:37:34.218Z,84.81
2017-05-16T03:38:34.860Z,84.81
2017-05-16T03:39:35.695Z,85.00
2017-05-16T03:40:36.339Z,84.81
2017-05-16T03:41:36.979Z,84.81
2017-05-16T03:42:37.623Z,84.91
2017-05-16T03:43:38.258Z,85.20
2017-05-16T03:44:38.898Z,85.00
2017-05-16T03:45:39.539Z,85.00
2017-05-16T03:46:40.179Z,85.10
2017-05-16T03:47:40.820Z,84.81
2017-05-16T03:48:41.664Z,84.91
2017-05-16T03:49:42.307Z,84.91
2017-05-16T03:50:42.947Z,84.91
2017-05-16T03:51:43.587Z,84.72
2017-05-16T03:52:44.229Z,84.81
2017-05-16T03:53:44.869Z,84.91
2017-05-16T03:54:45.510Z,84.81
2017-05-16T03:55:46.155Z,85.00
2017-05-16T03:56:46.997Z,85.00
2017-05-16T03:57:47.640Z,85.10
2017-05-16T03:58:48.286Z,85.30
2017-05-16T03:59:48.921Z,84.81
2017-05-16T04:00:49.560Z,85.20
2017-05-16T04:01:50.203Z,85.20
2017-05-16T04:02:50.843Z,85.20
2017-05-16T04:03:51.483Z,85.00
2017-05-16T04:04:52.275Z,84.81
2017-05-16T04:05:52.916Z,85.20
2017-05-16T04:06:53.559Z,85.00
2017-05-16T04:07:54.199Z,85.10
2017-05-16T04:08:54.840Z,84.81
2017-05-16T04:09:55.481Z,84.81
2017-05-16T04:10:56.124Z,84.81
2017-05-16T04:11:56.807Z,84.62
2017-05-16T04:12:57.611Z,85.10
2017-05-16T04:13:58.262Z,84.81
2017-05-16T04:14:58.903Z,84.91
2017-05-16T04:15:59.545Z,85.10
2017-05-16T04:17:00.186Z,84.91
2017-05-16T04:18:00.828Z,84.81
2017-05-16T04:19:01.509Z,84.81
2017-05-16T04:20:02.117Z,85.20
2017-05-16T04:21:02.751Z,85.10
2017-05-16T04:22:03.542Z,84.91
2017-05-16T04:23:04.183Z,84.62
2017-05-16T04:24:04.823Z,85.20
2017-05-16T04:25:05.469Z,85.20
2017-05-16T04:26:06.107Z,85.00
2017-05-16T04:27:06.747Z,85.20
2017-05-16T04:28:07.391Z,85.20
2017-05-16T04:29:08.032Z,85.20
2017-05-16T04:30:08.876Z,84.91
2017-05-16T04:31:09.516Z,84.81
2017-05-16T04:32:10.156Z,84.91
2017-05-16T04:33:10.799Z,85.20
2017-05-16T04:34:11.442Z,85.10
2017-05-16T04:35:12.077Z,85.00
2017-05-16T04:36:12.714Z,84.81
2017-05-16T04:37:13.354Z,85.10
2017-05-16T04:38:14.292Z,85.10
2017-05-16T04:39:14.934Z,85.10
2017-05-16T04:40:15.575Z,84.81
2017-05-16T04:41:16.216Z,85.30
2017-05-16T04:42:16.851Z,85.00
2017-05-16T04:43:17.495Z,84.72
2017-05-16T04:44:18.136Z,85.00
2017-05-16T04:45:18.773Z,84.91
2017-05-16T04:46:19.558Z,84.81
2017-05-16T04:47:20.201Z,84.91
2017-05-16T04:48:20.842Z,84.62
2017-05-16T04:49:21.485Z,85.00
2017-05-16T04:50:22.127Z,84.91
2017-05-16T04:51:22.768Z,85.39
2017-05-16T04:52:23.405Z,85.20
2017-05-16T04:53:24.050Z,85.00
2017-05-16T04:54:24.891Z,85.00
2017-05-16T04:55:25.531Z,85.30
2017-05-16T04:56:26.173Z,85.10
2017-05-16T04:57:26.813Z,84.91
2017-05-16T04:58:27.458Z,85.20
2017-05-16T04:59:28.101Z,84.91
2017-05-16T05:00:28.740Z,85.20
2017-05-16T05:01:29.383Z,85.00
2017-05-16T05:02:30.023Z,84.81
2017-05-16T05:03:30.814Z,85.20
2017-05-16T05:04:31.457Z,85.00
2017-05-16T05:05:32.091Z,85.10
2017-05-16T05:06:32.733Z,85.00
2017-05-16T05:07:33.377Z,85.00
2017-05-16T05:08:34.018Z,85.10
2017-05-16T05:09:34.656Z,84.62
2017-05-16T05:10:35.298Z,84.72
2017-05-16T05:11:36.255Z,85.20
2017-05-16T05:12:36.928Z,85.00
2017-05-16T05:13:37.722Z,84.81
2017-05-16T05:14:38.356Z,84.81
2017-05-16T05:15:38.998Z,85.00
2017-05-16T05:16:39.640Z,85.30
2017-05-16T05:17:40.281Z,85.20
2017-05-16T05:18:40.917Z,85.16
2017-05-16T05:19:41.759Z,85.10
2017-05-16T05:20:42.401Z,85.16
2017-05-16T05:21:43.044Z,85.39
2017-05-16T05:22:43.679Z,85.20
2017-05-16T05:23:44.319Z,85.00
2017-05-16T05:24:44.959Z,85.00
2017-05-16T05:25:45.601Z,85.10
2017-05-16T05:26:46.240Z,85.00
2017-05-16T05:27:47.082Z,84.91
2017-05-16T05:28:47.720Z,85.20
2017-05-16T05:29:48.359Z,85.10
2017-05-16T05:30:49.000Z,85.20
2017-05-16T05:31:49.642Z,84.97
2017-05-16T05:32:50.284Z,85.78
2017-05-16T05:33:50.926Z,85.35
2017-05-16T05:34:51.566Z,85.35
2017-05-16T05:35:52.207Z,85.35
2017-05-16T05:36:53.149Z,85.10
2017-05-16T05:37:53.789Z,85.06
2017-05-16T05:38:54.431Z,85.44
2017-05-16T05:39:55.073Z,85.68
2017-05-16T05:40:55.709Z,85.83
2017-05-16T05:41:56.350Z,85.68
2017-05-16T05:42:56.991Z,85.78
2017-05-16T05:43:57.632Z,85.68
2017-05-16T05:44:58.419Z,85.74
2017-05-16T05:45:59.060Z,85.93
2017-05-16T05:46:59.701Z,85.74
2017-05-16T05:48:00.343Z,85.83
2017-05-16T05:49:00.986Z,86.31
2017-05-16T05:50:01.631Z,86.12
2017-05-16T05:51:02.271Z,86.31
2017-05-16T05:52:02.911Z,86.31
2017-05-16T05:53:03.805Z,86.02
2017-05-16T05:54:04.446Z,86.22
2017-05-16T05:55:05.089Z,86.12
2017-05-16T05:56:05.731Z,86.69
2017-05-16T05:57:06.373Z,86.89
2017-05-16T05:58:07.012Z,86.69
2017-05-16T05:59:07.654Z,86.22
2017-05-16T06:00:08.297Z,86.51
2017-05-16T06:01:09.287Z,86.69
2017-05-16T06:02:09.928Z,86.69
2017-05-16T06:03:10.569Z,86.12
2017-05-16T06:04:11.210Z,86.02
2017-05-16T06:05:11.856Z,86.02
2017-05-16T06:06:12.494Z,86.22
2017-05-16T06:07:13.135Z,86.22
2017-05-16T06:08:13.773Z,86.12
2017-05-16T06:09:14.614Z,86.51
2017-05-16T06:10:15.256Z,86.41
2017-05-16T06:11:15.895Z,86.31
2017-05-16T06:12:16.537Z,86.22
2017-05-16T06:13:17.177Z,86.02
2017-05-16T06:14:17.819Z,86.12
2017-05-16T06:15:18.462Z,86.51
2017-05-16T06:16:19.104Z,86.69
2017-05-16T06:17:19.747Z,86.93
2017-05-16T06:18:20.587Z,86.41
2017-05-16T06:19:21.223Z,86.69
2017-05-16T06:20:21.866Z,86.41
2017-05-16T06:21:22.504Z,86.60
2017-05-16T06:22:23.147Z,86.89
2017-05-16T06:23:23.789Z,86.60
2017-05-16T06:24:24.428Z,86.79
2017-05-16T06:25:25.070Z,86.69
2017-05-16T06:26:25.907Z,86.51
2017-05-16T06:27:26.551Z,86.41
2017-05-16T06:28:27.192Z,86.79
2017-05-16T06:29:27.832Z,86.69
2017-05-16T06:30:28.470Z,86.69
2017-05-16T06:31:29.112Z,86.74
2017-05-16T06:32:29.749Z,86.79
2017-05-16T06:33:30.390Z,86.69
2017-05-16T06:34:31.228Z,87.08
2017-05-16T06:35:31.868Z,86.60
2017-05-16T06:36:32.509Z,86.79
2017-05-16T06:37:33.150Z,86.51
2017-05-16T06:38:33.790Z,86.60
2017-05-16T06:39:34.435Z,86.79
2017-05-16T06:40:35.072Z,86.89
2017-05-16T06:41:35.707Z,86.60
2017-05-16T06:42:36.549Z,86.83
2017-05-16T06:43:37.193Z,86.60
2017-05-16T06:44:37.834Z,86.79
2017-05-16T06:45:38.475Z,87.12
2017-05-16T06:46:39.115Z,86.89
2017-05-16T06:47:39.756Z,86.99
2017-05-16T06:48:40.397Z,87.22
2017-05-16T06:49:41.033Z,87.03
2017-05-16T06:50:41.676Z,87.12
2017-05-16T06:51:42.516Z,87.12
2017-05-16T06:52:43.160Z,87.60
2017-05-16T06:53:43.800Z,87.37
2017-05-16T06:54:44.442Z,87.46
2017-05-16T06:55:45.087Z,86.60
2017-05-16T06:56:45.723Z,86.31
2017-05-16T06:57:46.357Z,86.60
2017-05-16T06:58:46.995Z,86.99
2017-05-16T06:59:47.935Z,86.65
2017-05-16T07:00:48.578Z,86.83
2017-05-16T07:01:49.217Z,86.45
2017-05-16T07:02:49.861Z,86.93
2017-05-16T07:03:50.501Z,86.83
2017-05-16T07:04:51.139Z,86.65
2017-05-16T07:05:52.101Z,85.97
2017-05-16T07:06:52.692Z,86.35
2017-05-16T07:07:53.533Z,86.83
2017-05-16T07:08:54.173Z,86.74
2017-05-16T07:09:54.814Z,86.16
2017-05-16T07:10:55.455Z,86.35
2017-05-16T07:11:56.096Z,85.87
2017-05-16T07:12:56.741Z,86.55
2017-05-16T07:13:57.379Z,86.79
2017-05-16T07:14:58.335Z,87.22
2017-05-16T07:15:59.176Z,86.65
2017-05-16T07:16:59.823Z,86.45
2017-05-16T07:18:00.453Z,86.55
2017-05-16T07:19:01.092Z,87.03
2017-05-16T07:20:01.735Z,86.74
2017-05-16T07:21:02.376Z,86.74
2017-05-16T07:22:03.073Z,86.93
2017-05-16T07:23:03.823Z,86.45
2017-05-16T07:24:04.660Z,86.35
2017-05-16T07:25:05.301Z,86.65
2017-05-16T07:26:05.944Z,86.83
2017-05-16T07:27:06.584Z,86.55
2017-05-16T07:28:07.227Z,86.35
2017-05-16T07:29:07.868Z,86.65
2017-05-16T07:30:08.512Z,86.45
2017-05-16T07:31:09.146Z,85.49
2017-05-16T07:32:09.789Z,85.78
2017-05-16T07:33:10.779Z,85.30
2017-05-16T07:34:11.420Z,86.65
2017-05-16T07:35:12.061Z,85.87
2017-05-16T07:36:12.703Z,86.16
2017-05-16T07:37:13.347Z,86.35
2017-05-16T07:38:13.987Z,86.16
2017-05-16T07:39:14.628Z,86.35
2017-05-16T07:40:15.269Z,86.35
2017-05-16T07:41:16.112Z,85.87
2017-05-16T07:42:16.757Z,85.87
2017-05-16T07:43:17.393Z,86.07
2017-05-16T07:44:18.038Z,85.68
2017-05-16T07:45:18.672Z,86.16
2017-05-16T07:46:19.310Z,86.55
2017-05-16T07:47:19.951Z,86.35
2017-05-16T07:48:20.595Z,85.20
2017-05-16T07:49:21.386Z,85.10
2017-05-16T07:50:22.028Z,86.16
2017-05-16T07:51:22.670Z,86.16
2017-05-16T07:52:23.315Z,86.65
2017-05-16T07:53:23.956Z,86.65
2017-05-16T07:54:24.592Z,87.03
2017-05-16T07:55:25.234Z,87.03
2017-05-16T07:56:25.874Z,86.83
2017-05-16T07:57:26.715Z,87.03
2017-05-16T07:58:27.357Z,86.16
2017-05-16T07:59:28.000Z,85.97
2017-05-16T08:00:28.642Z,85.78
2017-05-16T08:01:29.280Z,86.35
2017-05-16T08:02:29.925Z,85.78
2017-05-16T08:03:30.564Z,85.87
2017-05-16T08:04:31.204Z,85.87
2017-05-16T08:05:31.839Z,86.16
2017-05-16T08:06:32.681Z,85.87
2017-05-16T08:07:33.318Z,86.16
2017-05-16T08:08:33.958Z,86.16
2017-05-16T08:09:34.600Z,85.58
2017-05-16T08:10:35.242Z,85.58
2017-05-16T08:11:35.878Z,85.78
2017-05-16T08:12:36.521Z,85.58
2017-05-16T08:13:37.157Z,85.78
2017-05-16T08:14:37.998Z,86.16
2017-05-16T08:15:38.643Z,85.58
2017-05-16T08:16:39.288Z,85.82
2017-05-16T08:17:39.926Z,85.78
2017-05-16T08:18:40.570Z,85.34
2017-05-16T08:19:41.208Z,86.21
2017-05-16T08:20:41.852Z,85.97
2017-05-16T08:21:42.490Z,85.87
2017-05-16T08:22:43.280Z,85.68
2017-05-16T08:23:43.921Z,85.78
2017-05-16T08:24:44.562Z,85.39
2017-05-16T08:25:45.204Z,85.49
2017-05-16T08:26:45.846Z,85.78
2017-05-16T08:27:46.489Z,85.97
2017-05-16T08:28:47.127Z,85.87
2017-05-16T08:29:47.770Z,85.97
2017-05-16T08:30:48.605Z,85.72
2017-05-16T08:31:49.246Z,85.49
2017-05-16T08:32:49.886Z,85.43
2017-05-16T08:33:50.529Z,85.53
2017-05-16T08:34:51.163Z,85.53
2017-05-16T08:35:51.806Z,85.72
2017-05-16T08:36:52.445Z,85.53
2017-05-16T08:37:53.079Z,85.43
2017-05-16T08:38:53.874Z,85.43
2017-05-16T08:39:54.513Z,85.63
2017-05-16T08:40:55.154Z,85.24
2017-05-16T08:41:55.790Z,85.72
2017-05-16T08:42:56.430Z,85.63
2017-05-16T08:43:57.075Z,85.53
2017-05-16T08:44:57.718Z,85.43
2017-05-16T08:45:58.360Z,85.34
2017-05-16T08:46:59.002Z,85.14
2017-05-16T08:47:59.841Z,85.24
2017-05-16T08:49:00.482Z,85.05
2017-05-16T08:50:01.125Z,85.91
2017-05-16T08:51:01.761Z,85.43
2017-05-16T08:52:02.402Z,86.21
2017-05-16T08:53:03.043Z,86.69
2017-05-16T08:54:03.684Z,86.88
2017-05-16T08:55:04.329Z,86.78
2017-05-16T08:56:05.119Z,86.78
2017-05-16T08:57:05.764Z,86.78
2017-05-16T08:58:06.403Z,86.69
2017-05-16T08:59:07.046Z,86.69
2017-05-16T09:00:07.692Z,86.69
2017-05-16T09:01:08.336Z,86.21
2017-05-16T09:02:08.975Z,86.69
2017-05-16T09:03:09.616Z,86.30
2017-05-16T09:04:10.461Z,86.01
2017-05-16T09:05:11.106Z,85.72
2017-05-16T09:06:11.749Z,86.21
2017-05-16T09:07:12.386Z,85.82
2017-05-16T09:08:13.028Z,85.82
2017-05-16T09:09:13.664Z,86.21
2017-05-16T09:10:14.306Z,86.30
2017-05-16T09:11:14.952Z,86.21
2017-05-16T09:12:15.798Z,86.49
2017-05-16T09:13:16.439Z,86.49
2017-05-16T09:14:17.083Z,86.11
2017-05-16T09:15:17.724Z,86.98
2017-05-16T09:16:18.365Z,86.98
2017-05-16T09:17:19.010Z,86.78
2017-05-16T09:18:19.652Z,86.78
2017-05-16T09:19:20.296Z,86.40
2017-05-16T09:20:20.942Z,86.11
2017-05-16T09:21:21.733Z,86.78
2017-05-16T09:22:22.372Z,86.49
2017-05-16T09:23:23.015Z,86.88
2017-05-16T09:24:23.658Z,86.98
2017-05-16T09:25:24.302Z,87.07
2017-05-16T09:26:24.941Z,86.88
2017-05-16T09:27:25.583Z,86.88
2017-05-16T09:28:26.220Z,87.07
2017-05-16T09:29:27.059Z,86.59
2017-05-16T09:30:27.701Z,86.21
2017-05-16T09:31:28.338Z,86.49
2017-05-16T09:32:28.982Z,86.21
2017-05-16T09:33:29.625Z,86.59
2017-05-16T09:34:30.269Z,86.59
2017-05-16T09:35:30.919Z,86.88
2017-05-16T09:36:31.549Z,86.78
2017-05-16T09:37:32.342Z,86.98
2017-05-16T09:38:32.986Z,86.69
2017-05-16T09:39:33.627Z,86.78
2017-05-16T09:40:34.270Z,86.69
2017-05-16T09:41:34.911Z,86.59
2017-05-16T09:42:35.559Z,86.59
2017-05-16T09:43:36.192Z,86.30
2017-05-16T09:44:36.835Z,86.69
2017-05-16T09:45:38.131Z,86.98
2017-05-16T09:46:38.776Z,86.21
2017-05-16T09:47:39.414Z,87.07
2017-05-16T09:48:40.052Z,86.88
2017-05-16T09:49:40.690Z,86.69
2017-05-16T09:50:41.330Z,86.88
2017-05-16T09:51:41.973Z,86.59
2017-05-16T09:52:42.619Z,86.88
2017-05-16T09:53:43.408Z,86.88
2017-05-16T09:54:44.044Z,86.49
2017-05-16T09:55:44.684Z,86.30
2017-05-16T09:56:45.325Z,86.30
2017-05-16T09:57:45.963Z,86.40
2017-05-16T09:58:46.605Z,86.21
2017-05-16T09:59:47.242Z,85.91
2017-05-16T10:00:47.836Z,85.82
2017-05-16T10:01:48.480Z,85.82
2017-05-16T10:02:49.423Z,86.01
2017-05-16T10:03:50.064Z,86.01
2017-05-16T10:04:50.704Z,85.82
2017-05-16T10:05:51.344Z,85.82
2017-05-16T10:06:51.990Z,85.91
2017-05-16T10:07:52.635Z,85.43
2017-05-16T10:08:53.278Z,85.63
2017-05-16T10:09:53.922Z,85.91
2017-05-16T10:10:54.761Z,85.72
2017-05-16T10:11:55.398Z,85.43
2017-05-16T10:12:56.036Z,85.14
2017-05-16T10:13:56.678Z,85.43
2017-05-16T10:14:57.320Z,85.96
2017-05-16T10:15:57.960Z,85.14
2017-05-16T10:16:58.600Z,85.14
2017-05-16T10:17:59.245Z,85.24
2017-05-16T10:19:00.041Z,85.24
2017-05-16T10:20:00.684Z,85.05
2017-05-16T10:21:01.330Z,85.24
2017-05-16T10:22:01.970Z,85.34
2017-05-16T10:23:02.611Z,85.43
2017-05-16T10:24:03.256Z,85.34
2017-05-16T10:25:03.902Z,85.34
2017-05-16T10:26:04.544Z,85.14
2017-05-16T10:27:05.383Z,85.05
2017-05-16T10:28:06.025Z,85.14
2017-05-16T10:29:06.669Z,85.19
2017-05-16T10:30:07.309Z,84.99
2017-05-16T10:31:07.952Z,85.28
2017-05-16T10:32:08.596Z,85.28
2017-05-16T10:33:09.233Z,85.57
2017-05-16T10:34:09.870Z,85.86
2017-05-16T10:35:10.515Z,85.57
2017-05-16T10:36:11.158Z,85.19
2017-05-16T10:37:11.804Z,85.77
2017-05-16T10:38:12.456Z,85.47
2017-05-16T10:39:13.091Z,84.99
2017-05-16T10:40:13.732Z,85.19
2017-05-16T10:41:14.371Z,84.80
2017-05-16T10:42:15.014Z,84.90
2017-05-16T10:43:15.656Z,84.42
2017-05-16T10:44:16.500Z,84.61
2017-05-16T10:45:17.144Z,84.70
2017-05-16T10:46:17.786Z,84.80
2017-05-16T10:47:18.429Z,84.80
2017-05-16T10:48:19.069Z,85.09
2017-05-16T10:49:19.706Z,84.90
2017-05-16T10:50:20.344Z,84.70
2017-05-16T10:51:20.985Z,84.90
2017-05-16T10:52:21.876Z,84.61
2017-05-16T10:53:22.576Z,84.70
2017-05-16T10:54:23.218Z,84.80
2017-05-16T10:55:23.866Z,84.80
2017-05-16T10:56:24.508Z,84.80
2017-05-16T10:57:25.147Z,84.80
2017-05-16T10:58:25.789Z,84.42
2017-05-16T10:59:26.481Z,84.52
2017-05-16T11:00:27.425Z,84.22
2017-05-16T11:01:28.060Z,84.22
2017-05-16T11:02:28.703Z,84.32
2017-05-16T11:03:29.347Z,84.70
2017-05-16T11:04:29.990Z,84.61
2017-05-16T11:05:30.633Z,84.61
2017-05-16T11:06:31.271Z,83.74
2017-05-16T11:07:31.915Z,83.94
2017-05-16T11:08:32.756Z,84.22
2017-05-16T11:09:33.395Z,84.03
2017-05-16T11:10:34.039Z,84.12
2017-05-16T11:11:34.686Z,84.32
2017-05-16T11:12:35.645Z,84.12
2017-05-16T11:13:36.290Z,83.55
2017-05-16T11:14:36.935Z,83.84
2017-05-16T11:15:37.579Z,84.03
2017-05-16T11:16:38.223Z,84.12
2017-05-16T11:17:39.016Z,83.64
2017-05-16T11:18:39.660Z,83.55
2017-05-16T11:19:40.301Z,83.64
2017-05-16T11:20:40.942Z,83.74
2017-05-16T11:21:41.585Z,83.78
2017-05-16T11:22:42.227Z,83.64
2017-05-16T11:23:42.872Z,83.69
2017-05-16T11:24:43.515Z,83.11
2017-05-16T11:25:44.355Z,84.07
2017-05-16T11:26:44.996Z,83.07
2017-05-16T11:27:45.632Z,83.07
2017-05-16T11:28:46.276Z,83.30
2017-05-16T11:29:46.917Z,83.59
2017-05-16T11:30:47.565Z,83.30
2017-05-16T11:31:48.207Z,83.78
2017-05-16T11:32:48.845Z,83.30
2017-05-16T11:33:49.732Z,83.16
2017-05-16T11:34:50.373Z,83.20
2017-05-16T11:35:51.015Z,83.11
2017-05-16T11:36:51.662Z,82.82
2017-05-16T11:37:52.302Z,82.92
2017-05-16T11:38:52.947Z,82.92
2017-05-16T11:39:53.587Z,83.11
2017-05-16T11:40:54.231Z,82.72
2017-05-16T11:41:55.023Z,83.30
2017-05-16T11:42:55.662Z,83.30
2017-05-16T11:43:56.306Z,83.11
2017-05-16T11:44:56.943Z,82.62
2017-05-16T11:45:57.582Z,82.62
2017-05-16T11:46:58.227Z,82.92
2017-05-16T11:47:58.871Z,82.53
2017-05-16T11:48:59.514Z,82.53
2017-05-16T11:50:00.156Z,82.43
2017-05-16T11:51:01.099Z,82.53
2017-05-16T11:52:02.061Z,82.14
2017-05-16T11:53:02.698Z,82.43
2017-05-16T11:54:03.341Z,82.43
2017-05-16T11:55:03.983Z,82.62
2017-05-16T11:56:04.626Z,82.82
2017-05-16T11:57:05.266Z,82.82
2017-05-16T11:58:05.903Z,82.62
2017-05-16T11:59:06.695Z,82.53
2017-05-16T12:00:07.341Z,82.14
2017-05-16T12:01:07.980Z,82.72
2017-05-16T12:02:08.621Z,82.43
2017-05-16T12:03:09.262Z,82.14
2017-05-16T12:04:09.902Z,82.24
2017-05-16T12:05:10.548Z,82.53
2017-05-16T12:06:11.191Z,82.14
2017-05-16T12:07:12.235Z,82.34
2017-05-16T12:08:12.878Z,82.28
2017-05-16T12:09:13.520Z,82.09
2017-05-16T12:10:14.169Z,82.18
2017-05-16T12:11:14.802Z,82.38
2017-05-16T12:12:15.442Z,82.18
2017-05-16T12:13:16.084Z,82.09
2017-05-16T12:14:16.729Z,82.57
2017-05-16T12:15:17.670Z,82.57
2017-05-16T12:16:18.315Z,82.38
2017-05-16T12:17:18.959Z,82.67
2017-05-16T12:18:19.600Z,82.67
2017-05-16T12:19:20.243Z,82.48
2017-05-16T12:20:20.883Z,81.99
2017-05-16T12:21:21.520Z,81.99
2017-05-16T12:22:22.163Z,81.80
2017-05-16T12:23:23.011Z,81.51
2017-05-16T12:24:23.652Z,81.90
2017-05-16T12:25:24.295Z,81.51
2017-05-16T12:26:24.940Z,81.60
2017-05-16T12:27:25.581Z,81.51
2017-05-16T12:28:26.225Z,81.70
2017-05-16T12:29:26.867Z,81.51
2017-05-16T12:30:27.511Z,81.70
2017-05-16T12:31:28.153Z,81.60
2017-05-16T12:32:28.997Z,81.80
2017-05-16T12:33:29.636Z,81.70
2017-05-16T12:34:30.280Z,81.70
2017-05-16T12:35:30.919Z,81.70
2017-05-16T12:36:31.570Z,81.60
2017-05-16T12:37:32.205Z,81.90
2017-05-16T12:38:32.848Z,81.70
2017-05-16T12:39:33.490Z,81.60
2017-05-16T12:40:34.286Z,81.90
2017-05-16T12:41:34.927Z,81.80
2017-05-16T12:42:35.570Z,81.80
2017-05-16T12:43:36.214Z,81.80
2017-05-16T12:44:36.857Z,81.70
2017-05-16T12:45:37.501Z,81.70
2017-05-16T12:46:38.148Z,81.66
2017-05-16T12:47:38.794Z,81.66
2017-05-16T12:48:39.637Z,81.66
2017-05-16T12:49:40.277Z,81.47
2017-05-16T12:50:40.918Z,81.76
2017-05-16T12:51:41.558Z,81.66
2017-05-16T12:52:42.204Z,81.47
2017-05-16T12:53:42.851Z,81.76
2017-05-16T12:54:43.493Z,81.66
2017-05-16T12:55:44.129Z,81.66
2017-05-16T12:56:44.970Z,81.66
2017-05-16T12:57:45.613Z,81.57
2017-05-16T12:58:46.255Z,81.47
2017-05-16T12:59:46.897Z,81.37
2017-05-16T13:00:47.540Z,81.18